createdAt,value
2023-01-23T00:03:34.205Z,2.00
2023-01-23T00:07:35.822Z,2.00
2023-01-23T00:11:37.459Z,2.10
2023-01-23T00:15:39.942Z,2.00
2023-01-23T00:19:41.737Z,2.10
2023-01-23T00:23:48.837Z,2.10
2023-01-23T00:27:50.513Z,2.10
2023-01-23T00:31:52.194Z,2.10
2023-01-23T00:35:55.124Z,2.10
2023-01-23T00:39:56.763Z,2.10
2023-01-23T00:43:58.482Z,2.10
2023-01-23T00:48:00.110Z,2.20
2023-01-23T00:52:01.965Z,2.20
2023-01-23T00:56:03.903Z,2.20
2023-01-23T01:00:06.462Z,2.20
2023-01-23T01:04:08.198Z,2.20
2023-01-23T01:08:10.190Z,2.20
2023-01-23T01:12:11.858Z,2.20
2023-01-23T01:16:13.730Z,2.10
2023-01-23T01:20:16.145Z,2.10
2023-01-23T01:24:17.823Z,2.10
2023-01-23T01:28:19.555Z,2.10
2023-01-23T01:32:21.185Z,2.10
2023-01-23T01:36:24.240Z,2.10
2023-01-23T01:40:31.544Z,2.10
2023-01-23T01:44:53.910Z,2.10
2023-01-23T01:49:01.398Z,2.10
2023-01-23T01:53:03.127Z,2.10
2023-01-23T01:57:14.196Z,2.00
2023-01-23T02:01:16.425Z,2.10
2023-01-23T02:05:43.852Z,2.10
2023-01-23T02:09:46.499Z,2.10
2023-01-23T02:13:48.267Z,2.10
2023-01-23T02:17:52.916Z,2.10
2023-01-23T02:22:07.527Z,2.10
2023-01-23T02:26:36.552Z,2.10
2023-01-23T02:30:40.148Z,2.00
2023-01-23T02:34:42.581Z,2.00
2023-01-23T02:39:02.587Z,2.00
2023-01-23T02:43:06.312Z,2.10
2023-01-23T02:47:12.209Z,2.00
2023-01-23T02:51:14.408Z,2.00
2023-01-23T02:55:16.485Z,2.00
2023-01-23T02:59:36.922Z,1.90
2023-01-23T03:03:41.514Z,1.80
2023-01-23T03:07:43.239Z,1.60
2023-01-23T03:11:46.400Z,1.50
2023-01-23T03:15:52.918Z,1.40
2023-01-23T03:19:57.460Z,1.40
2023-01-23T03:23:59.492Z,1.40
2023-01-23T03:28:01.198Z,1.40
2023-01-23T03:32:03.182Z,1.40
2023-01-23T03:36:08.171Z,1.30
2023-01-23T03:40:38.620Z,1.30
2023-01-23T03:44:40.324Z,1.40
2023-01-23T03:48:42.057Z,1.50
2023-01-23T03:52:43.723Z,1.50
2023-01-23T03:56:45.411Z,1.60
2023-01-23T04:00:47.106Z,1.60
2023-01-23T04:04:48.760Z,1.60
2023-01-23T04:08:50.418Z,1.60
2023-01-23T04:12:52.145Z,1.70
2023-01-23T04:16:53.845Z,1.70
2023-01-23T04:20:56.222Z,1.70
2023-01-23T04:24:57.860Z,1.70
2023-01-23T04:28:59.495Z,1.60
2023-01-23T04:33:01.209Z,1.50
2023-01-23T04:37:02.886Z,1.50
2023-01-23T04:41:04.790Z,1.50
2023-01-23T04:45:09.349Z,1.50
2023-01-23T04:49:11.086Z,1.60
2023-01-23T04:53:13.967Z,1.50
2023-01-23T04:57:15.632Z,1.60
2023-01-23T05:01:23.000Z,1.70
2023-01-23T05:05:26.329Z,1.60
2023-01-23T05:09:28.008Z,1.60
2023-01-23T05:13:29.715Z,1.50
2023-01-23T05:17:31.385Z,1.40
2023-01-23T05:21:33.080Z,1.40
2023-01-23T05:25:35.618Z,1.40
2023-01-23T05:29:37.271Z,1.50
2023-01-23T05:33:40.335Z,1.50
2023-01-23T05:37:42.096Z,1.50
2023-01-23T05:41:43.764Z,1.60
2023-01-23T05:45:45.550Z,1.60
2023-01-23T05:49:47.297Z,1.60
2023-01-23T05:53:49.156Z,1.50
2023-01-23T05:57:50.979Z,1.40
2023-01-23T06:01:52.630Z,1.40
2023-01-23T06:05:54.361Z,1.30
2023-01-23T06:09:55.977Z,1.20
2023-01-23T06:13:57.603Z,1.20
2023-01-23T06:17:59.235Z,1.20
2023-01-23T06:22:00.943Z,1.10
2023-01-23T06:26:03.426Z,1.10
2023-01-23T06:30:06.282Z,1.10
2023-01-23T06:34:08.306Z,1.20
2023-01-23T06:38:10.329Z,1.20
2023-01-23T06:42:11.977Z,1.30
2023-01-23T06:46:13.675Z,1.40
2023-01-23T06:50:16.715Z,1.40
2023-01-23T06:54:18.345Z,1.50
2023-01-23T06:58:20.312Z,1.60
2023-01-23T07:02:22.363Z,1.70
2023-01-23T07:06:24.304Z,1.70
2023-01-23T07:10:26.461Z,1.70
2023-01-23T07:14:28.631Z,1.70
2023-01-23T07:18:30.518Z,1.80
2023-01-23T07:22:32.272Z,1.80
2023-01-23T07:26:34.005Z,1.80
2023-01-23T07:30:35.717Z,1.80
2023-01-23T07:34:37.429Z,1.90
2023-01-23T07:38:39.142Z,1.90
2023-01-23T07:42:41.831Z,1.90
2023-01-23T07:46:44.527Z,1.90
2023-01-23T07:50:46.195Z,1.90
2023-01-23T07:54:47.844Z,2.00
2023-01-23T07:58:51.039Z,2.00
2023-01-23T08:02:52.767Z,2.00
2023-01-23T08:06:54.393Z,2.00
2023-01-23T08:10:56.040Z,2.10
2023-01-23T08:14:57.760Z,2.10
2023-01-23T08:18:59.621Z,2.10
2023-01-23T08:23:02.244Z,2.10
2023-01-23T08:27:04.068Z,2.20
2023-01-23T08:31:08.679Z,2.20
2023-01-23T08:35:10.811Z,2.20
2023-01-23T08:39:12.496Z,2.30
2023-01-23T08:43:14.852Z,2.30
2023-01-23T08:47:16.505Z,2.30
2023-01-23T08:51:18.903Z,2.30
2023-01-23T08:55:20.535Z,2.40
2023-01-23T08:59:22.680Z,2.50
2023-01-23T09:03:25.070Z,2.60
2023-01-23T09:07:26.705Z,2.50
2023-01-23T09:11:28.365Z,2.50
2023-01-23T09:15:30.191Z,2.50
2023-01-23T09:19:32.794Z,2.50
2023-01-23T09:23:34.801Z,2.60
2023-01-23T09:27:36.484Z,2.50
2023-01-23T09:31:38.259Z,2.60
2023-01-23T09:35:39.966Z,2.60
2023-01-23T09:39:44.778Z,2.50
2023-01-23T09:43:46.425Z,2.60
2023-01-23T09:47:55.735Z,2.70
2023-01-23T09:52:07.455Z,2.80
2023-01-23T09:56:35.110Z,2.80
2023-01-23T10:00:36.708Z,2.90
2023-01-23T10:04:38.410Z,2.90
2023-01-23T10:08:46.284Z,2.90
2023-01-23T10:13:25.402Z,2.90
2023-01-23T10:17:52.455Z,2.90
2023-01-23T10:22:22.846Z,3.00
2023-01-23T10:26:31.651Z,3.00
2023-01-23T10:30:38.336Z,3.00
2023-01-23T10:35:12.441Z,3.10
2023-01-23T10:39:24.969Z,3.20
2023-01-23T10:43:27.329Z,3.20
2023-01-23T10:47:48.055Z,3.20
2023-01-23T10:51:53.721Z,3.10
2023-01-23T10:55:58.952Z,3.00
2023-01-23T11:00:08.212Z,3.10
2023-01-23T11:04:25.591Z,3.10
2023-01-23T11:08:29.206Z,3.20
2023-01-23T11:12:33.226Z,3.10
2023-01-23T11:16:35.814Z,3.10
2023-01-23T11:20:40.891Z,3.20
2023-01-23T11:24:42.592Z,3.20
2023-01-23T11:28:49.660Z,3.10
2023-01-23T11:32:54.829Z,3.20
2023-01-23T11:37:18.228Z,3.20
2023-01-23T11:41:22.332Z,3.40
2023-01-23T11:45:38.771Z,3.30
2023-01-23T11:50:05.338Z,3.40
2023-01-23T11:54:25.675Z,3.40
2023-01-23T11:58:58.660Z,3.50
2023-01-23T12:03:27.788Z,3.60
2023-01-23T12:07:53.925Z,3.70
2023-01-23T12:12:24.123Z,3.70
2023-01-23T12:16:48.382Z,3.60
2023-01-23T12:20:57.981Z,3.60
2023-01-23T12:25:35.310Z,3.60
2023-01-23T12:29:54.269Z,3.70
2023-01-23T12:34:14.927Z,3.80
2023-01-23T12:38:35.760Z,3.90
2023-01-23T12:43:11.741Z,3.90
2023-01-23T12:47:19.869Z,3.90
2023-01-23T12:51:26.786Z,3.90
2023-01-23T12:55:37.857Z,4.00
2023-01-23T13:00:03.866Z,3.90
2023-01-23T13:04:05.582Z,3.80
2023-01-23T13:08:29.087Z,3.90
2023-01-23T13:12:31.411Z,3.90
2023-01-23T13:16:33.243Z,3.90
2023-01-23T13:21:15.733Z,3.80
2023-01-23T13:25:19.874Z,3.70
2023-01-23T13:29:58.797Z,3.60
2023-01-23T13:34:15.020Z,3.60
2023-01-23T13:38:29.282Z,3.60
2023-01-23T13:42:34.636Z,3.50
2023-01-23T14:22:48.468Z,3.50
2023-01-23T14:26:53.035Z,3.50
2023-01-23T14:30:59.812Z,3.50
2023-01-23T14:35:01.482Z,3.50
2023-01-23T14:39:04.149Z,3.40
2023-01-23T14:43:08.227Z,3.40
2023-01-23T14:47:23.470Z,3.40
2023-01-23T14:51:26.838Z,3.40
2023-01-23T14:55:32.758Z,3.40
2023-01-23T14:59:36.638Z,3.30
2023-01-23T15:03:55.302Z,3.30
2023-01-23T15:08:03.517Z,3.20
2023-01-23T15:12:16.697Z,3.20
2023-01-23T15:16:38.747Z,3.20
2023-01-23T15:20:41.439Z,3.10
2023-01-23T15:24:43.152Z,3.10
2023-01-23T15:29:21.460Z,3.10
2023-01-23T15:33:31.957Z,3.10
2023-01-23T15:37:34.448Z,3.10
2023-01-23T15:41:49.357Z,3.10
2023-01-23T15:45:51.140Z,3.10
2023-01-23T15:49:53.518Z,3.10
2023-01-23T15:53:55.227Z,3.10
2023-01-23T15:57:56.979Z,3.10
2023-01-23T16:01:58.742Z,3.10
2023-01-23T16:06:00.425Z,3.00
2023-01-23T16:10:28.361Z,3.00
2023-01-23T16:14:29.956Z,3.00
2023-01-23T16:18:31.679Z,2.90
2023-01-23T16:22:35.104Z,2.90
2023-01-23T16:26:36.897Z,2.80
2023-01-23T16:30:38.788Z,2.90
2023-01-23T16:34:40.484Z,2.80
2023-01-23T16:38:50.403Z,2.80
2023-01-23T16:42:53.353Z,2.80
2023-01-23T16:46:55.114Z,2.80
2023-01-23T16:51:03.031Z,2.70
2023-01-23T16:55:17.770Z,2.70
2023-01-23T16:59:31.750Z,2.70
2023-01-23T17:03:36.815Z,2.80
2023-01-23T17:07:38.482Z,2.70
2023-01-23T17:11:42.897Z,2.70
2023-01-23T17:15:45.792Z,2.70
2023-01-23T17:19:47.508Z,2.60
2023-01-23T17:23:49.543Z,2.70
2023-01-23T17:28:10.962Z,2.60
2023-01-23T17:32:35.113Z,2.60
2023-01-23T17:36:37.104Z,2.70
2023-01-23T17:40:40.485Z,2.70
2023-01-23T17:44:42.145Z,2.70
2023-01-23T17:48:43.991Z,2.60
2023-01-23T17:52:46.594Z,2.60
2023-01-23T17:56:48.426Z,2.60
2023-01-23T18:00:53.241Z,2.60
2023-01-23T18:04:55.674Z,2.60
2023-01-23T18:08:57.312Z,2.60
2023-01-23T18:13:24.998Z,2.60
2023-01-23T18:17:36.525Z,2.60
2023-01-23T18:21:38.828Z,2.60
2023-01-23T18:25:45.925Z,2.60
2023-01-23T18:30:08.743Z,2.60
2023-01-23T18:34:28.906Z,2.60
2023-01-23T18:39:01.063Z,2.60
2023-01-23T18:43:14.681Z,2.60
2023-01-23T18:47:16.603Z,2.60
2023-01-23T18:51:39.651Z,2.60
2023-01-23T18:56:14.135Z,2.60
2023-01-23T19:00:27.828Z,2.60
2023-01-23T19:04:47.005Z,2.60
2023-01-23T19:08:50.361Z,2.60
2023-01-23T19:13:21.269Z,2.70
2023-01-23T19:17:22.869Z,2.60
2023-01-23T19:21:28.087Z,2.60
2023-01-23T19:25:30.126Z,2.60
2023-01-23T19:29:31.961Z,2.70
2023-01-23T19:33:33.584Z,2.70
2023-01-23T19:37:39.667Z,2.70
2023-01-23T19:41:49.182Z,2.70
2023-01-23T19:45:50.841Z,2.60
2023-01-23T19:49:52.535Z,2.60
2023-01-23T19:53:54.961Z,2.60
2023-01-23T19:57:57.140Z,2.60
2023-01-23T20:01:58.915Z,2.70
2023-01-23T20:06:00.700Z,2.70
2023-01-23T20:10:02.937Z,2.60
2023-01-23T20:14:04.596Z,2.70
2023-01-23T20:18:06.288Z,2.70
2023-01-23T20:22:07.960Z,2.70
2023-01-23T20:26:10.045Z,2.70
2023-01-23T20:30:17.147Z,2.60
2023-01-23T20:34:18.806Z,2.70
2023-01-23T20:38:21.266Z,2.60
2023-01-23T20:42:23.356Z,2.70
2023-01-23T20:46:26.692Z,2.70
2023-01-23T20:50:28.417Z,2.70
2023-01-23T20:54:30.071Z,2.70
2023-01-23T20:58:51.628Z,2.80
2023-01-23T21:02:53.539Z,2.70
2023-01-23T21:06:55.304Z,2.70
2023-01-23T21:10:56.950Z,2.70
2023-01-23T21:14:58.997Z,2.80
2023-01-23T21:19:01.026Z,2.80
2023-01-23T21:23:02.677Z,2.80
2023-01-23T21:27:05.744Z,2.80
2023-01-23T21:31:14.818Z,2.80
2023-01-23T21:35:16.540Z,2.80
2023-01-23T21:39:19.041Z,2.80
2023-01-23T21:43:20.709Z,2.80
2023-01-23T21:47:22.921Z,2.80
2023-01-23T21:51:25.278Z,2.80
2023-01-23T21:55:26.964Z,2.80
2023-01-23T21:59:28.641Z,2.80
2023-01-23T22:03:35.547Z,2.80
2023-01-23T22:07:37.236Z,2.80
2023-01-23T22:11:38.884Z,2.80
2023-01-23T22:15:40.621Z,2.80
2023-01-23T22:19:43.342Z,2.80
2023-01-23T22:23:45.134Z,2.80
2023-01-23T22:27:46.833Z,2.70
2023-01-23T22:31:48.774Z,2.80
2023-01-23T22:35:50.572Z,2.80
2023-01-23T22:39:52.217Z,2.80
2023-01-23T22:43:55.162Z,2.80
2023-01-23T22:47:57.248Z,2.80
2023-01-23T22:51:58.883Z,2.80
2023-01-23T22:56:05.069Z,2.80
2023-01-23T23:00:12.488Z,2.70
2023-01-23T23:04:14.185Z,2.60
2023-01-23T23:08:15.824Z,2.60
2023-01-23T23:12:17.485Z,2.60
2023-01-23T23:16:24.956Z,2.70
2023-01-23T23:20:26.922Z,2.60
2023-01-23T23:24:28.587Z,2.60
2023-01-23T23:28:30.624Z,2.60
2023-01-23T23:32:32.295Z,2.50
2023-01-23T23:36:34.133Z,2.60
2023-01-23T23:40:35.911Z,2.60
2023-01-23T23:44:37.597Z,2.60
2023-01-23T23:48:39.879Z,2.50
2023-01-23T23:52:41.565Z,2.50
2023-01-23T23:56:43.529Z,2.50
